sensor_id;sensor_type;location;lat;lon;timestamp;P1;durP1;ratioP1;P2;durP2;ratioP2
60026;SDS011;45891;53.006;6.512;2022-08-19T00:01:25;14.00;;;4.93;;
60026;SDS011;45891;53.006;6.512;2022-08-19T00:03:52;9.43;;;4.32;;
60026;SDS011;45891;53.006;6.512;2022-08-19T00:06:19;10.25;;;4.78;;
60026;SDS011;45891;53.006;6.512;2022-08-19T00:08:45;9.35;;;4.78;;
60026;SDS011;45891;53.006;6.512;2022-08-19T00:11:11;11.63;;;5.20;;
60026;SDS011;45891;53.006;6.512;2022-08-19T00:13:38;10.07;;;5.00;;
60026;SDS011;45891;53.006;6.512;2022-08-19T00:16:04;10.35;;;5.15;;
60026;SDS011;45891;53.006;6.512;2022-08-19T00:18:32;10.73;;;6.05;;
60026;SDS011;45891;53.006;6.512;2022-08-19T00:20:59;10.45;;;5.13;;
60026;SDS011;45891;53.006;6.512;2022-08-19T00:23:25;12.27;;;5.25;;
60026;SDS011;45891;53.006;6.512;2022-08-19T00:25:53;10.07;;;4.80;;
60026;SDS011;45891;53.006;6.512;2022-08-19T00:28:19;13.20;;;4.70;;
60026;SDS011;45891;53.006;6.512;2022-08-19T00:30:46;14.00;;;5.55;;
60026;SDS011;45891;53.006;6.512;2022-08-19T00:33:12;11.35;;;5.03;;
60026;SDS011;45891;53.006;6.512;2022-08-19T00:35:39;12.13;;;4.95;;
60026;SDS011;45891;53.006;6.512;2022-08-19T00:38:05;9.35;;;4.80;;
60026;SDS011;45891;53.006;6.512;2022-08-19T00:40:32;13.02;;;4.95;;
60026;SDS011;45891;53.006;6.512;2022-08-19T00:42:58;10.40;;;4.80;;
60026;SDS011;45891;53.006;6.512;2022-08-19T00:45:26;9.40;;;4.70;;
60026;SDS011;45891;53.006;6.512;2022-08-19T00:47:55;13.68;;;4.50;;
60026;SDS011;45891;53.006;6.512;2022-08-19T00:50:21;16.13;;;4.40;;
60026;SDS011;45891;53.006;6.512;2022-08-19T00:52:49;10.20;;;3.95;;
60026;SDS011;45891;53.006;6.512;2022-08-19T00:55:21;9.13;;;3.95;;
60026;SDS011;45891;53.006;6.512;2022-08-19T00:57:51;8.70;;;4.00;;
60026;SDS011;45891;53.006;6.512;2022-08-19T01:00:21;11.13;;;4.43;;
60026;SDS011;45891;53.006;6.512;2022-08-19T01:02:49;12.20;;;4.13;;
60026;SDS011;45891;53.006;6.512;2022-08-19T01:05:16;9.02;;;3.95;;
60026;SDS011;45891;53.006;6.512;2022-08-19T01:07:46;8.32;;;3.92;;
60026;SDS011;45891;53.006;6.512;2022-08-19T01:10:15;9.18;;;4.38;;
60026;SDS011;45891;53.006;6.512;2022-08-19T01:12:45;8.63;;;3.88;;
60026;SDS011;45891;53.006;6.512;2022-08-19T01:15:13;8.60;;;3.78;;
60026;SDS011;45891;53.006;6.512;2022-08-19T01:17:42;8.93;;;4.30;;
60026;SDS011;45891;53.006;6.512;2022-08-19T01:20:11;9.15;;;3.83;;
60026;SDS011;45891;53.006;6.512;2022-08-19T01:22:42;9.43;;;3.70;;
60026;SDS011;45891;53.006;6.512;2022-08-19T01:25:08;9.50;;;3.83;;
60026;SDS011;45891;53.006;6.512;2022-08-19T01:27:38;12.57;;;3.80;;
60026;SDS011;45891;53.006;6.512;2022-08-19T01:30:07;10.85;;;4.53;;
60026;SDS011;45891;53.006;6.512;2022-08-19T01:32:34;9.75;;;4.13;;
60026;SDS011;45891;53.006;6.512;2022-08-19T01:35:00;10.40;;;3.90;;
60026;SDS011;45891;53.006;6.512;2022-08-19T01:37:29;10.70;;;4.25;;
60026;SDS011;45891;53.006;6.512;2022-08-19T01:39:55;12.00;;;4.30;;
60026;SDS011;45891;53.006;6.512;2022-08-19T01:42:22;10.45;;;4.30;;
60026;SDS011;45891;53.006;6.512;2022-08-19T01:44:48;9.95;;;4.90;;
60026;SDS011;45891;53.006;6.512;2022-08-19T01:47:14;10.45;;;5.60;;
60026;SDS011;45891;53.006;6.512;2022-08-19T01:49:41;9.85;;;5.55;;
60026;SDS011;45891;53.006;6.512;2022-08-19T01:52:07;10.38;;;5.80;;
60026;SDS011;45891;53.006;6.512;2022-08-19T01:54:33;11.60;;;5.38;;
60026;SDS011;45891;53.006;6.512;2022-08-19T01:57:02;13.88;;;7.15;;
60026;SDS011;45891;53.006;6.512;2022-08-19T01:59:32;12.43;;;6.13;;
60026;SDS011;45891;53.006;6.512;2022-08-19T02:01:59;13.70;;;7.15;;
60026;SDS011;45891;53.006;6.512;2022-08-19T02:04:25;15.07;;;7.22;;
60026;SDS011;45891;53.006;6.512;2022-08-19T02:06:51;15.30;;;7.32;;
60026;SDS011;45891;53.006;6.512;2022-08-19T02:09:17;11.27;;;6.20;;
60026;SDS011;45891;53.006;6.512;2022-08-19T02:11:43;12.98;;;7.03;;
60026;SDS011;45891;53.006;6.512;2022-08-19T02:14:10;15.10;;;6.95;;
60026;SDS011;45891;53.006;6.512;2022-08-19T02:16:36;12.65;;;6.70;;
60026;SDS011;45891;53.006;6.512;2022-08-19T02:19:02;10.15;;;6.18;;
60026;SDS011;45891;53.006;6.512;2022-08-19T02:21:28;14.73;;;8.05;;
60026;SDS011;45891;53.006;6.512;2022-08-19T02:23:55;12.05;;;7.05;;
60026;SDS011;45891;53.006;6.512;2022-08-19T02:26:22;13.60;;;7.25;;
60026;SDS011;45891;53.006;6.512;2022-08-19T02:28:48;13.27;;;7.60;;
60026;SDS011;45891;53.006;6.512;2022-08-19T02:31:16;16.55;;;9.48;;
60026;SDS011;45891;53.006;6.512;2022-08-19T02:33:45;14.38;;;7.68;;
60026;SDS011;45891;53.006;6.512;2022-08-19T02:36:12;14.68;;;7.38;;
60026;SDS011;45891;53.006;6.512;2022-08-19T02:38:40;15.95;;;9.23;;
60026;SDS011;45891;53.006;6.512;2022-08-19T02:41:09;13.43;;;7.73;;
60026;SDS011;45891;53.006;6.512;2022-08-19T02:43:40;13.43;;;8.73;;
60026;SDS011;45891;53.006;6.512;2022-08-19T02:46:13;16.50;;;8.97;;
60026;SDS011;45891;53.006;6.512;2022-08-19T02:48:40;13.98;;;8.27;;
60026;SDS011;45891;53.006;6.512;2022-08-19T02:51:06;15.70;;;9.90;;
60026;SDS011;45891;53.006;6.512;2022-08-19T02:53:32;16.48;;;9.48;;
60026;SDS011;45891;53.006;6.512;2022-08-19T02:55:58;17.27;;;9.65;;
60026;SDS011;45891;53.006;6.512;2022-08-19T02:58:24;14.95;;;8.90;;
60026;SDS011;45891;53.006;6.512;2022-08-19T03:00:53;14.05;;;9.07;;
60026;SDS011;45891;53.006;6.512;2022-08-19T03:03:21;14.52;;;8.32;;
60026;SDS011;45891;53.006;6.512;2022-08-19T03:05:47;13.23;;;8.18;;
60026;SDS011;45891;53.006;6.512;2022-08-19T03:08:14;13.63;;;8.95;;
60026;SDS011;45891;53.006;6.512;2022-08-19T03:10:44;14.88;;;9.15;;
60026;SDS011;45891;53.006;6.512;2022-08-19T03:15:43;15.15;;;9.13;;
60026;SDS011;45891;53.006;6.512;2022-08-19T03:18:11;18.02;;;10.88;;
60026;SDS011;45891;53.006;6.512;2022-08-19T03:20:41;17.50;;;10.48;;
60026;SDS011;45891;53.006;6.512;2022-08-19T03:23:09;15.63;;;9.95;;
60026;SDS011;45891;53.006;6.512;2022-08-19T03:25:36;17.05;;;10.07;;
60026;SDS011;45891;53.006;6.512;2022-08-19T03:28:04;17.15;;;10.18;;
60026;SDS011;45891;53.006;6.512;2022-08-19T03:30:30;14.65;;;9.65;;
60026;SDS011;45891;53.006;6.512;2022-08-19T03:32:57;16.92;;;10.18;;
60026;SDS011;45891;53.006;6.512;2022-08-19T03:35:23;16.77;;;10.18;;
60026;SDS011;45891;53.006;6.512;2022-08-19T03:37:49;14.20;;;8.93;;
60026;SDS011;45891;53.006;6.512;2022-08-19T03:40:15;15.70;;;9.30;;
60026;SDS011;45891;53.006;6.512;2022-08-19T03:42:42;16.38;;;10.25;;
60026;SDS011;45891;53.006;6.512;2022-08-19T03:45:08;15.05;;;9.63;;
60026;SDS011;45891;53.006;6.512;2022-08-19T03:47:35;15.88;;;9.98;;
60026;SDS011;45891;53.006;6.512;2022-08-19T03:50:02;16.20;;;9.48;;
60026;SDS011;45891;53.006;6.512;2022-08-19T03:52:29;14.20;;;9.57;;
60026;SDS011;45891;53.006;6.512;2022-08-19T03:54:55;16.00;;;9.77;;
60026;SDS011;45891;53.006;6.512;2022-08-19T03:57:22;16.58;;;10.23;;
60026;SDS011;45891;53.006;6.512;2022-08-19T03:59:48;16.83;;;10.25;;
60026;SDS011;45891;53.006;6.512;2022-08-19T04:02:14;14.85;;;9.45;;
60026;SDS011;45891;53.006;6.512;2022-08-19T04:04:41;16.52;;;10.05;;
60026;SDS011;45891;53.006;6.512;2022-08-19T04:07:09;16.35;;;10.15;;
60026;SDS011;45891;53.006;6.512;2022-08-19T04:09:36;17.52;;;11.27;;
60026;SDS011;45891;53.006;6.512;2022-08-19T04:12:03;19.88;;;13.23;;
60026;SDS011;45891;53.006;6.512;2022-08-19T04:14:31;18.05;;;12.30;;
60026;SDS011;45891;53.006;6.512;2022-08-19T04:16:58;19.52;;;11.50;;
60026;SDS011;45891;53.006;6.512;2022-08-19T04:19:26;15.90;;;11.20;;
60026;SDS011;45891;53.006;6.512;2022-08-19T04:21:55;17.10;;;12.07;;
60026;SDS011;45891;53.006;6.512;2022-08-19T04:24:21;18.35;;;12.27;;
60026;SDS011;45891;53.006;6.512;2022-08-19T04:26:48;18.58;;;12.38;;
60026;SDS011;45891;53.006;6.512;2022-08-19T04:29:17;17.63;;;12.35;;
60026;SDS011;45891;53.006;6.512;2022-08-19T04:31:46;20.40;;;12.85;;
60026;SDS011;45891;53.006;6.512;2022-08-19T04:34:15;18.85;;;11.65;;
60026;SDS011;45891;53.006;6.512;2022-08-19T04:36:43;18.85;;;12.82;;
60026;SDS011;45891;53.006;6.512;2022-08-19T04:39:12;17.02;;;11.90;;
60026;SDS011;45891;53.006;6.512;2022-08-19T04:41:41;19.90;;;11.32;;
60026;SDS011;45891;53.006;6.512;2022-08-19T04:44:29;17.67;;;11.60;;
60026;SDS011;45891;53.006;6.512;2022-08-19T04:46:56;15.75;;;11.15;;
60026;SDS011;45891;53.006;6.512;2022-08-19T04:49:22;17.98;;;12.38;;
60026;SDS011;45891;53.006;6.512;2022-08-19T04:51:50;17.40;;;12.00;;
60026;SDS011;45891;53.006;6.512;2022-08-19T04:54:19;18.38;;;11.75;;
60026;SDS011;45891;53.006;6.512;2022-08-19T04:56:48;19.08;;;12.10;;
60026;SDS011;45891;53.006;6.512;2022-08-19T04:59:16;19.30;;;12.27;;
60026;SDS011;45891;53.006;6.512;2022-08-19T05:01:43;16.98;;;11.80;;
60026;SDS011;45891;53.006;6.512;2022-08-19T05:04:09;18.30;;;11.85;;
60026;SDS011;45891;53.006;6.512;2022-08-19T05:06:35;19.73;;;13.05;;
60026;SDS011;45891;53.006;6.512;2022-08-19T05:09:06;17.15;;;12.02;;
60026;SDS011;45891;53.006;6.512;2022-08-19T05:11:34;21.70;;;14.63;;
60026;SDS011;45891;53.006;6.512;2022-08-19T05:14:04;19.52;;;13.25;;
60026;SDS011;45891;53.006;6.512;2022-08-19T05:16:34;23.52;;;14.18;;
60026;SDS011;45891;53.006;6.512;2022-08-19T05:19:00;22.15;;;14.70;;
60026;SDS011;45891;53.006;6.512;2022-08-19T05:21:45;22.52;;;13.98;;
60026;SDS011;45891;53.006;6.512;2022-08-19T05:24:30;21.38;;;13.23;;
60026;SDS011;45891;53.006;6.512;2022-08-19T05:27:00;20.50;;;13.77;;
60026;SDS011;45891;53.006;6.512;2022-08-19T05:29:28;21.20;;;13.27;;
60026;SDS011;45891;53.006;6.512;2022-08-19T05:31:57;20.17;;;13.40;;
60026;SDS011;45891;53.006;6.512;2022-08-19T05:34:25;21.73;;;14.82;;
60026;SDS011;45891;53.006;6.512;2022-08-19T05:36:53;22.83;;;15.18;;
60026;SDS011;45891;53.006;6.512;2022-08-19T05:39:25;19.45;;;13.98;;
60026;SDS011;45891;53.006;6.512;2022-08-19T05:41:58;20.60;;;14.10;;
60026;SDS011;45891;53.006;6.512;2022-08-19T05:44:30;21.98;;;15.48;;
60026;SDS011;45891;53.006;6.512;2022-08-19T05:46:58;21.13;;;14.82;;
60026;SDS011;45891;53.006;6.512;2022-08-19T05:49:26;19.75;;;14.38;;
60026;SDS011;45891;53.006;6.512;2022-08-19T05:51:52;20.90;;;14.48;;
60026;SDS011;45891;53.006;6.512;2022-08-19T05:54:20;24.27;;;14.38;;
60026;SDS011;45891;53.006;6.512;2022-08-19T05:56:48;21.58;;;15.43;;
60026;SDS011;45891;53.006;6.512;2022-08-19T05:59:16;22.77;;;14.15;;
60026;SDS011;45891;53.006;6.512;2022-08-19T06:01:43;19.80;;;14.23;;
60026;SDS011;45891;53.006;6.512;2022-08-19T06:04:12;21.17;;;14.80;;
60026;SDS011;45891;53.006;6.512;2022-08-19T06:06:39;22.27;;;14.50;;
60026;SDS011;45891;53.006;6.512;2022-08-19T06:09:07;22.48;;;14.65;;
60026;SDS011;45891;53.006;6.512;2022-08-19T06:14:07;19.63;;;13.85;;
60026;SDS011;45891;53.006;6.512;2022-08-19T06:16:36;19.67;;;14.30;;
60026;SDS011;45891;53.006;6.512;2022-08-19T06:19:05;19.08;;;13.02;;
60026;SDS011;45891;53.006;6.512;2022-08-19T06:21:34;19.58;;;13.32;;
60026;SDS011;45891;53.006;6.512;2022-08-19T06:24:03;16.55;;;12.57;;
60026;SDS011;45891;53.006;6.512;2022-08-19T06:26:32;19.45;;;12.60;;
60026;SDS011;45891;53.006;6.512;2022-08-19T06:29:07;16.50;;;11.43;;
60026;SDS011;45891;53.006;6.512;2022-08-19T06:34:02;15.27;;;10.70;;
60026;SDS011;45891;53.006;6.512;2022-08-19T06:36:30;16.63;;;10.55;;
60026;SDS011;45891;53.006;6.512;2022-08-19T06:39:02;16.77;;;10.20;;
60026;SDS011;45891;53.006;6.512;2022-08-19T06:41:35;15.45;;;10.25;;
60026;SDS011;45891;53.006;6.512;2022-08-19T06:44:04;14.00;;;9.63;;
60026;SDS011;45891;53.006;6.512;2022-08-19T06:46:31;15.10;;;9.77;;
60026;SDS011;45891;53.006;6.512;2022-08-19T06:48:57;16.45;;;9.80;;
60026;SDS011;45891;53.006;6.512;2022-08-19T06:51:23;13.52;;;9.65;;
60026;SDS011;45891;53.006;6.512;2022-08-19T06:53:51;16.55;;;9.60;;
60026;SDS011;45891;53.006;6.512;2022-08-19T06:56:21;13.73;;;8.85;;
60026;SDS011;45891;53.006;6.512;2022-08-19T06:58:50;13.40;;;9.05;;
60026;SDS011;45891;53.006;6.512;2022-08-19T07:01:18;14.35;;;8.90;;
60026;SDS011;45891;53.006;6.512;2022-08-19T07:03:45;13.98;;;8.98;;
60026;SDS011;45891;53.006;6.512;2022-08-19T07:06:13;14.85;;;9.32;;
60026;SDS011;45891;53.006;6.512;2022-08-19T07:11:12;14.18;;;8.95;;
60026;SDS011;45891;53.006;6.512;2022-08-19T07:16:10;13.60;;;9.30;;
60026;SDS011;45891;53.006;6.512;2022-08-19T07:18:41;14.40;;;8.95;;
60026;SDS011;45891;53.006;6.512;2022-08-19T07:21:11;14.15;;;8.85;;
60026;SDS011;45891;53.006;6.512;2022-08-19T07:23:42;14.25;;;9.00;;
60026;SDS011;45891;53.006;6.512;2022-08-19T07:26:11;12.87;;;8.67;;
60026;SDS011;45891;53.006;6.512;2022-08-19T07:28:40;13.35;;;9.10;;
60026;SDS011;45891;53.006;6.512;2022-08-19T07:31:12;14.25;;;8.85;;
60026;SDS011;45891;53.006;6.512;2022-08-19T07:33:40;14.23;;;8.57;;
60026;SDS011;45891;53.006;6.512;2022-08-19T07:36:09;12.70;;;8.60;;
60026;SDS011;45891;53.006;6.512;2022-08-19T07:38:37;13.38;;;7.97;;
60026;SDS011;45891;53.006;6.512;2022-08-19T07:41:04;11.80;;;7.53;;
60026;SDS011;45891;53.006;6.512;2022-08-19T07:43:31;14.07;;;7.90;;
60026;SDS011;45891;53.006;6.512;2022-08-19T07:45:57;13.85;;;7.68;;
60026;SDS011;45891;53.006;6.512;2022-08-19T07:48:24;15.18;;;7.43;;
60026;SDS011;45891;53.006;6.512;2022-08-19T07:50:52;12.98;;;6.88;;
60026;SDS011;45891;53.006;6.512;2022-08-19T07:53:23;12.35;;;6.78;;
60026;SDS011;45891;53.006;6.512;2022-08-19T07:55:50;11.07;;;6.60;;
60026;SDS011;45891;53.006;6.512;2022-08-19T07:58:18;9.85;;;6.40;;
60026;SDS011;45891;53.006;6.512;2022-08-19T08:00:46;12.02;;;6.63;;
60026;SDS011;45891;53.006;6.512;2022-08-19T08:03:15;12.38;;;6.30;;
60026;SDS011;45891;53.006;6.512;2022-08-19T08:05:42;11.70;;;5.25;;
60026;SDS011;45891;53.006;6.512;2022-08-19T08:08:47;11.48;;;5.68;;
60026;SDS011;45891;53.006;6.512;2022-08-19T08:11:32;10.57;;;5.45;;
60026;SDS011;45891;53.006;6.512;2022-08-19T08:13:58;10.38;;;4.97;;
60026;SDS011;45891;53.006;6.512;2022-08-19T08:16:26;10.52;;;4.80;;
60026;SDS011;45891;53.006;6.512;2022-08-19T08:18:55;11.50;;;5.10;;
60026;SDS011;45891;53.006;6.512;2022-08-19T08:21:21;12.10;;;6.15;;
60026;SDS011;45891;53.006;6.512;2022-08-19T08:23:47;13.20;;;7.15;;
60026;SDS011;45891;53.006;6.512;2022-08-19T08:26:14;12.95;;;7.15;;
60026;SDS011;45891;53.006;6.512;2022-08-19T08:28:41;13.75;;;7.95;;
60026;SDS011;45891;53.006;6.512;2022-08-19T08:31:07;11.68;;;7.93;;
60026;SDS011;45891;53.006;6.512;2022-08-19T08:33:34;11.95;;;8.00;;
60026;SDS011;45891;53.006;6.512;2022-08-19T08:36:01;10.32;;;6.28;;
60026;SDS011;45891;53.006;6.512;2022-08-19T08:38:30;11.98;;;6.28;;
60026;SDS011;45891;53.006;6.512;2022-08-19T08:40:59;10.35;;;5.57;;
60026;SDS011;45891;53.006;6.512;2022-08-19T08:43:37;12.18;;;6.35;;
60026;SDS011;45891;53.006;6.512;2022-08-19T08:46:10;10.83;;;5.93;;
60026;SDS011;45891;53.006;6.512;2022-08-19T08:48:48;12.68;;;6.47;;
60026;SDS011;45891;53.006;6.512;2022-08-19T08:51:36;9.65;;;5.72;;
60026;SDS011;45891;53.006;6.512;2022-08-19T08:54:14;11.43;;;6.15;;
60026;SDS011;45891;53.006;6.512;2022-08-19T08:56:44;11.82;;;5.68;;
60026;SDS011;45891;53.006;6.512;2022-08-19T08:59:18;10.45;;;5.22;;
60026;SDS011;45891;53.006;6.512;2022-08-19T09:01:48;9.43;;;4.90;;
60026;SDS011;45891;53.006;6.512;2022-08-19T09:04:15;9.93;;;4.88;;
60026;SDS011;45891;53.006;6.512;2022-08-19T09:06:49;10.32;;;5.18;;
60026;SDS011;45891;53.006;6.512;2022-08-19T09:09:39;11.40;;;5.20;;
60026;SDS011;45891;53.006;6.512;2022-08-19T09:17:28;12.73;;;5.45;;
60026;SDS011;45891;53.006;6.512;2022-08-19T09:19:57;11.23;;;5.82;;
60026;SDS011;45891;53.006;6.512;2022-08-19T09:22:30;15.68;;;5.60;;
60026;SDS011;45891;53.006;6.512;2022-08-19T09:24:56;10.20;;;5.45;;
60026;SDS011;45891;53.006;6.512;2022-08-19T09:27:23;9.65;;;5.55;;
60026;SDS011;45891;53.006;6.512;2022-08-19T09:29:51;9.60;;;5.97;;
60026;SDS011;45891;53.006;6.512;2022-08-19T09:32:19;10.07;;;5.57;;
60026;SDS011;45891;53.006;6.512;2022-08-19T09:34:46;10.98;;;5.97;;
60026;SDS011;45891;53.006;6.512;2022-08-19T09:37:12;9.48;;;5.25;;
60026;SDS011;45891;53.006;6.512;2022-08-19T09:39:39;10.32;;;6.15;;
60026;SDS011;45891;53.006;6.512;2022-08-19T09:42:07;9.85;;;5.63;;
60026;SDS011;45891;53.006;6.512;2022-08-19T09:44:38;10.45;;;5.60;;
60026;SDS011;45891;53.006;6.512;2022-08-19T09:47:05;9.95;;;5.75;;
60026;SDS011;45891;53.006;6.512;2022-08-19T09:49:34;9.38;;;5.32;;
60026;SDS011;45891;53.006;6.512;2022-08-19T09:52:01;9.57;;;5.78;;
60026;SDS011;45891;53.006;6.512;2022-08-19T09:54:28;10.48;;;5.85;;
60026;SDS011;45891;53.006;6.512;2022-08-19T09:57:02;10.40;;;6.03;;
60026;SDS011;45891;53.006;6.512;2022-08-19T09:59:28;9.30;;;6.22;;
60026;SDS011;45891;53.006;6.512;2022-08-19T10:01:56;10.52;;;5.93;;
60026;SDS011;45891;53.006;6.512;2022-08-19T10:04:23;9.80;;;4.93;;
60026;SDS011;45891;53.006;6.512;2022-08-19T10:07:09;9.95;;;5.50;;
60026;SDS011;45891;53.006;6.512;2022-08-19T10:09:35;11.13;;;5.60;;
60026;SDS011;45891;53.006;6.512;2022-08-19T10:12:03;10.20;;;5.60;;
60026;SDS011;45891;53.006;6.512;2022-08-19T10:14:30;10.18;;;5.65;;
60026;SDS011;45891;53.006;6.512;2022-08-19T10:16:57;13.40;;;5.32;;
60026;SDS011;45891;53.006;6.512;2022-08-19T10:19:25;10.68;;;5.78;;
60026;SDS011;45891;53.006;6.512;2022-08-19T10:21:52;12.40;;;5.80;;
60026;SDS011;45891;53.006;6.512;2022-08-19T10:24:18;10.60;;;5.78;;
60026;SDS011;45891;53.006;6.512;2022-08-19T10:26:46;11.25;;;5.90;;
60026;SDS011;45891;53.006;6.512;2022-08-19T10:29:14;8.85;;;5.15;;
60026;SDS011;45891;53.006;6.512;2022-08-19T10:31:41;9.90;;;5.80;;
60026;SDS011;45891;53.006;6.512;2022-08-19T10:34:09;8.90;;;5.20;;
60026;SDS011;45891;53.006;6.512;2022-08-19T10:36:36;10.65;;;5.70;;
60026;SDS011;45891;53.006;6.512;2022-08-19T10:39:05;10.95;;;6.13;;
60026;SDS011;45891;53.006;6.512;2022-08-19T10:41:34;10.10;;;5.40;;
60026;SDS011;45891;53.006;6.512;2022-08-19T10:44:09;11.73;;;6.40;;
60026;SDS011;45891;53.006;6.512;2022-08-19T10:46:39;9.88;;;5.68;;
60026;SDS011;45891;53.006;6.512;2022-08-19T10:49:09;9.90;;;5.57;;
60026;SDS011;45891;53.006;6.512;2022-08-19T10:51:37;12.45;;;6.60;;
60026;SDS011;45891;53.006;6.512;2022-08-19T10:54:23;10.85;;;6.20;;
60026;SDS011;45891;53.006;6.512;2022-08-19T10:57:09;10.15;;;6.43;;
60026;SDS011;45891;53.006;6.512;2022-08-19T10:59:36;12.57;;;6.15;;
60026;SDS011;45891;53.006;6.512;2022-08-19T11:02:04;12.38;;;6.97;;
60026;SDS011;45891;53.006;6.512;2022-08-19T11:04:32;10.57;;;6.38;;
60026;SDS011;45891;53.006;6.512;2022-08-19T11:06:59;12.88;;;7.97;;
60026;SDS011;45891;53.006;6.512;2022-08-19T11:09:25;10.70;;;7.57;;
60026;SDS011;45891;53.006;6.512;2022-08-19T11:11:55;11.57;;;8.20;;
60026;SDS011;45891;53.006;6.512;2022-08-19T11:14:22;10.90;;;6.85;;
60026;SDS011;45891;53.006;6.512;2022-08-19T11:16:50;10.10;;;7.13;;
60026;SDS011;45891;53.006;6.512;2022-08-19T11:19:21;13.07;;;8.25;;
60026;SDS011;45891;53.006;6.512;2022-08-19T11:21:49;10.73;;;7.95;;
60026;SDS011;45891;53.006;6.512;2022-08-19T11:24:19;13.50;;;7.60;;
60026;SDS011;45891;53.006;6.512;2022-08-19T11:26:48;10.75;;;6.85;;
60026;SDS011;45891;53.006;6.512;2022-08-19T11:29:17;11.20;;;7.80;;
60026;SDS011;45891;53.006;6.512;2022-08-19T11:31:46;10.03;;;6.77;;
60026;SDS011;45891;53.006;6.512;2022-08-19T11:34:15;11.95;;;7.97;;
60026;SDS011;45891;53.006;6.512;2022-08-19T11:36:44;11.15;;;7.88;;
60026;SDS011;45891;53.006;6.512;2022-08-19T11:39:12;11.50;;;7.40;;
60026;SDS011;45891;53.006;6.512;2022-08-19T11:41:40;11.95;;;6.72;;
60026;SDS011;45891;53.006;6.512;2022-08-19T11:44:07;11.23;;;7.03;;
60026;SDS011;45891;53.006;6.512;2022-08-19T11:46:33;12.27;;;7.10;;
60026;SDS011;45891;53.006;6.512;2022-08-19T11:49:02;10.70;;;6.50;;
60026;SDS011;45891;53.006;6.512;2022-08-19T11:51:31;11.38;;;6.53;;
60026;SDS011;45891;53.006;6.512;2022-08-19T11:53:59;11.57;;;6.35;;
60026;SDS011;45891;53.006;6.512;2022-08-19T11:56:26;11.63;;;6.60;;
60026;SDS011;45891;53.006;6.512;2022-08-19T11:58:54;9.95;;;6.18;;
60026;SDS011;45891;53.006;6.512;2022-08-19T12:01:22;12.40;;;5.80;;
60026;SDS011;45891;53.006;6.512;2022-08-19T12:03:50;10.38;;;5.07;;
60026;SDS011;45891;53.006;6.512;2022-08-19T12:06:20;10.30;;;5.65;;
60026;SDS011;45891;53.006;6.512;2022-08-19T12:08:51;10.10;;;5.57;;
60026;SDS011;45891;53.006;6.512;2022-08-19T12:11:17;10.20;;;5.10;;
60026;SDS011;45891;53.006;6.512;2022-08-19T12:13:43;10.00;;;5.20;;
60026;SDS011;45891;53.006;6.512;2022-08-19T12:16:13;8.88;;;4.28;;
60026;SDS011;45891;53.006;6.512;2022-08-19T12:18:41;9.68;;;4.70;;
60026;SDS011;45891;53.006;6.512;2022-08-19T12:21:12;7.53;;;3.05;;
60026;SDS011;45891;53.006;6.512;2022-08-19T12:23:40;8.48;;;3.47;;
60026;SDS011;45891;53.006;6.512;2022-08-19T12:26:08;9.37;;;3.10;;
60026;SDS011;45891;53.006;6.512;2022-08-19T12:28:35;7.25;;;2.90;;
60026;SDS011;45891;53.006;6.512;2022-08-19T12:31:01;7.60;;;3.13;;
60026;SDS011;45891;53.006;6.512;2022-08-19T12:33:27;10.55;;;3.40;;
60026;SDS011;45891;53.006;6.512;2022-08-19T12:35:54;8.20;;;2.90;;
60026;SDS011;45891;53.006;6.512;2022-08-19T12:38:25;11.02;;;3.08;;
60026;SDS011;45891;53.006;6.512;2022-08-19T12:40:53;8.93;;;3.08;;
60026;SDS011;45891;53.006;6.512;2022-08-19T12:43:19;8.73;;;2.95;;
60026;SDS011;45891;53.006;6.512;2022-08-19T12:45:45;7.88;;;3.13;;
60026;SDS011;45891;53.006;6.512;2022-08-19T12:48:12;7.13;;;3.00;;
60026;SDS011;45891;53.006;6.512;2022-08-19T12:50:39;8.35;;;3.30;;
60026;SDS011;45891;53.006;6.512;2022-08-19T12:53:06;7.50;;;2.97;;
60026;SDS011;45891;53.006;6.512;2022-08-19T12:55:32;9.57;;;2.88;;
60026;SDS011;45891;53.006;6.512;2022-08-19T12:57:58;10.82;;;3.40;;
60026;SDS011;45891;53.006;6.512;2022-08-19T13:00:27;9.13;;;3.20;;
60026;SDS011;45891;53.006;6.512;2022-08-19T13:02:53;8.43;;;3.42;;
60026;SDS011;45891;53.006;6.512;2022-08-19T13:05:21;8.70;;;3.67;;
60026;SDS011;45891;53.006;6.512;2022-08-19T13:07:51;8.55;;;3.85;;
60026;SDS011;45891;53.006;6.512;2022-08-19T13:10:20;10.23;;;4.55;;
60026;SDS011;45891;53.006;6.512;2022-08-19T13:12:48;10.52;;;4.63;;
60026;SDS011;45891;53.006;6.512;2022-08-19T13:15:16;10.95;;;5.45;;
60026;SDS011;45891;53.006;6.512;2022-08-19T13:17:47;11.07;;;6.00;;
60026;SDS011;45891;53.006;6.512;2022-08-19T13:20:15;13.93;;;6.60;;
60026;SDS011;45891;53.006;6.512;2022-08-19T13:22:42;13.00;;;7.35;;
60026;SDS011;45891;53.006;6.512;2022-08-19T13:25:10;11.40;;;6.40;;
60026;SDS011;45891;53.006;6.512;2022-08-19T13:27:38;12.52;;;7.10;;
60026;SDS011;45891;53.006;6.512;2022-08-19T13:30:07;14.82;;;9.77;;
60026;SDS011;45891;53.006;6.512;2022-08-19T13:32:53;16.98;;;10.77;;
60026;SDS011;45891;53.006;6.512;2022-08-19T13:35:40;18.65;;;11.75;;
60026;SDS011;45891;53.006;6.512;2022-08-19T13:38:12;18.02;;;12.93;;
60026;SDS011;45891;53.006;6.512;2022-08-19T13:40:40;20.70;;;13.70;;
60026;SDS011;45891;53.006;6.512;2022-08-19T13:43:07;22.87;;;14.17;;
60026;SDS011;45891;53.006;6.512;2022-08-19T13:45:34;17.70;;;11.93;;
60026;SDS011;45891;53.006;6.512;2022-08-19T13:48:03;18.02;;;13.95;;
60026;SDS011;45891;53.006;6.512;2022-08-19T13:50:35;20.30;;;14.23;;
60026;SDS011;45891;53.006;6.512;2022-08-19T13:53:07;19.23;;;13.70;;
60026;SDS011;45891;53.006;6.512;2022-08-19T13:55:35;19.65;;;13.52;;
60026;SDS011;45891;53.006;6.512;2022-08-19T13:58:03;20.63;;;12.50;;
60026;SDS011;45891;53.006;6.512;2022-08-19T14:00:30;20.80;;;12.38;;
60026;SDS011;45891;53.006;6.512;2022-08-19T14:02:59;19.55;;;12.98;;
60026;SDS011;45891;53.006;6.512;2022-08-19T14:05:26;17.80;;;13.02;;
60026;SDS011;45891;53.006;6.512;2022-08-19T14:07:53;19.03;;;12.73;;
60026;SDS011;45891;53.006;6.512;2022-08-19T14:10:21;20.88;;;12.85;;
60026;SDS011;45891;53.006;6.512;2022-08-19T14:12:52;20.77;;;13.87;;
60026;SDS011;45891;53.006;6.512;2022-08-19T14:15:21;17.67;;;12.32;;
60026;SDS011;45891;53.006;6.512;2022-08-19T14:17:48;17.63;;;10.15;;
60026;SDS011;45891;53.006;6.512;2022-08-19T14:20:15;19.08;;;11.90;;
60026;SDS011;45891;53.006;6.512;2022-08-19T14:22:42;17.60;;;11.75;;
60026;SDS011;45891;53.006;6.512;2022-08-19T14:25:10;19.48;;;13.43;;
60026;SDS011;45891;53.006;6.512;2022-08-19T14:27:39;19.70;;;13.37;;
60026;SDS011;45891;53.006;6.512;2022-08-19T14:30:07;16.88;;;12.57;;
60026;SDS011;45891;53.006;6.512;2022-08-19T14:32:35;18.15;;;11.90;;
60026;SDS011;45891;53.006;6.512;2022-08-19T14:35:02;20.33;;;15.50;;
60026;SDS011;45891;53.006;6.512;2022-08-19T14:37:29;22.65;;;16.50;;
60026;SDS011;45891;53.006;6.512;2022-08-19T14:39:56;21.50;;;14.00;;
60026;SDS011;45891;53.006;6.512;2022-08-19T14:42:22;20.13;;;14.15;;
60026;SDS011;45891;53.006;6.512;2022-08-19T14:44:48;17.88;;;12.02;;
60026;SDS011;45891;53.006;6.512;2022-08-19T14:47:14;18.13;;;10.98;;
60026;SDS011;45891;53.006;6.512;2022-08-19T14:49:40;15.45;;;11.23;;
60026;SDS011;45891;53.006;6.512;2022-08-19T14:52:06;16.48;;;10.52;;
60026;SDS011;45891;53.006;6.512;2022-08-19T14:54:32;17.63;;;10.85;;
60026;SDS011;45891;53.006;6.512;2022-08-19T14:56:59;14.02;;;10.15;;
60026;SDS011;45891;53.006;6.512;2022-08-19T14:59:25;18.52;;;11.15;;